Time;durP1;ratioP1;P1;durP2;ratioP2;P2;SDS_P1;SDS_P2;PMS_P1;PMS_P2;Temp;Humidity;BMP_temperature;BMP_pressure;BME280_temperature;BME280_humidity;BME280_pressure;Samples;Min_cycle;Max_cycle;Signal;HPM_P1;HPM_P2
2023/08/13 00:00:06;;;;;;;7.05;3.70;;;;;;;;;;5038984;28;20087;-66
2023/08/13 00:02:33;;;;;;;5.40;3.70;;;;;;;;;;5033061;28;20021;-67
2023/08/13 00:04:58;;;;;;;8.27;3.58;;;;;;;;;;5033275;28;20037;-67
2023/08/13 00:07:24;;;;;;;5.22;3.47;;;;;;;;;;5033200;28;20387;-65
2023/08/13 00:09:49;;;;;;;3.88;2.90;;;;;;;;;;5033102;28;20116;-67
2023/08/13 00:12:14;;;;;;;4.50;3.13;;;;;;;;;;5032660;28;20036;-67
2023/08/13 00:14:40;;;;;;;4.57;3.00;;;;;;;;;;5033107;28;20429;-67
2023/08/13 00:17:05;;;;;;;4.05;2.90;;;;;;;;;;5033083;28;20078;-67
2023/08/13 00:19:31;;;;;;;7.55;2.80;;;;;;;;;;5032995;28;20039;-65
2023/08/13 00:21:56;;;;;;;4.32;3.00;;;;;;;;;;5032907;28;20037;-65
2023/08/13 00:24:21;;;;;;;7.25;3.47;;;;;;;;;;5032847;28;20021;-67
2023/08/13 00:26:47;;;;;;;6.32;4.00;;;;;;;;;;5032784;28;20025;-67
2023/08/13 00:29:12;;;;;;;5.60;4.50;;;;;;;;;;5032869;28;20079;-67
2023/08/13 00:31:38;;;;;;;7.85;4.00;;;;;;;;;;5016703;28;20061;-67
2023/08/13 00:34:03;;;;;;;5.80;3.20;;;;;;;;;;5022179;28;20022;-67
2023/08/13 00:36:28;;;;;;;5.50;3.75;;;;;;;;;;5017136;28;20117;-67
2023/08/13 00:38:54;;;;;;;4.55;3.33;;;;;;;;;;5012945;28;20104;-67
2023/08/13 00:41:19;;;;;;;4.20;3.20;;;;;;;;;;5012668;28;20121;-67
2023/08/13 00:43:45;;;;;;;5.75;3.47;;;;;;;;;;5012773;28;20122;-67
2023/08/13 00:46:11;;;;;;;4.00;3.20;;;;;;;;;;5021964;28;20139;-65
2023/08/13 00:48:38;;;;;;;7.50;3.60;;;;;;;;;;5038058;28;20114;-67
2023/08/13 00:51:04;;;;;;;6.60;3.97;;;;;;;;;;5032354;28;20533;-67
2023/08/13 00:53:30;;;;;;;5.63;3.17;;;;;;;;;;5032385;28;20021;-67
2023/08/13 00:55:56;;;;;;;4.57;3.10;;;;;;;;;;5032170;28;20022;-67
2023/08/13 00:58:22;;;;;;;4.53;3.15;;;;;;;;;;5032382;28;20483;-66
2023/08/13 01:00:47;;;;;;;4.25;3.03;;;;;;;;;;5032217;28;20041;-66
2023/08/13 01:03:13;;;;;;;4.30;2.70;;;;;;;;;;5032319;28;20021;-66
2023/08/13 01:06:08;;;;;;;5.13;3.17;;;;;;;;;;5032257;28;20025;-67
2023/08/13 01:08:57;;;;;;;5.00;2.92;;;;;;;;;;5029425;28;20069;-67
2023/08/13 01:11:57;;;;;;;3.47;2.72;;;;;;;;;;5017365;28;20026;-67
2023/08/13 01:14:43;;;;;;;4.47;2.47;;;;;;;;;;5009852;28;20092;-67
2023/08/13 01:17:11;;;;;;;3.40;2.50;;;;;;;;;;5009714;28;20344;-67
2023/08/13 01:19:37;;;;;;;3.05;2.53;;;;;;;;;;5009479;28;20543;-67
2023/08/13 01:22:02;;;;;;;6.35;2.75;;;;;;;;;;5009426;28;20057;-66
2023/08/13 01:24:28;;;;;;;3.92;2.65;;;;;;;;;;5017281;28;20368;-67
2023/08/13 01:27:23;;;;;;;5.82;2.42;;;;;;;;;;5029357;28;20029;-67
2023/08/13 01:29:54;;;;;;;4.95;2.53;;;;;;;;;;5011524;28;20116;-66
2023/08/13 01:32:24;;;;;;;5.10;3.25;;;;;;;;;;5009361;28;20038;-66
2023/08/13 01:34:51;;;;;;;;;;;;;;;;;;5009810;28;20033;-67
2023/08/13 01:37:18;;;;;;;4.85;3.20;;;;;;;;;;5009255;28;20357;-67
2023/08/13 01:39:44;;;;;;;4.90;3.22;;;;;;;;;;5009092;28;20046;-67
2023/08/13 01:42:11;;;;;;;6.25;3.10;;;;;;;;;;5009318;28;20112;-67
2023/08/13 01:44:37;;;;;;;6.45;3.15;;;;;;;;;;5009561;28;20038;-67
2023/08/13 01:47:04;;;;;;;6.13;3.20;;;;;;;;;;5027967;28;20036;-67
2023/08/13 01:49:30;;;;;;;5.28;3.08;;;;;;;;;;5030891;28;20045;-67
2023/08/13 01:51:55;;;;;;;7.28;3.30;;;;;;;;;;5031197;28;20159;-67
2023/08/13 01:54:21;;;;;;;9.43;3.63;;;;;;;;;;5031088;28;20032;-67
2023/08/13 01:56:46;;;;;;;7.38;3.35;;;;;;;;;;5031315;28;20490;-68
2023/08/13 01:59:12;;;;;;;4.80;2.80;;;;;;;;;;5031262;28;20033;-67
2023/08/13 02:01:37;;;;;;;4.18;2.60;;;;;;;;;;5030931;28;20034;-65
2023/08/13 02:04:03;;;;;;;5.78;2.80;;;;;;;;;;5031072;28;20077;-67
2023/08/13 02:06:32;;;;;;;4.93;2.80;;;;;;;;;;5031116;28;20037;-67
2023/08/13 02:08:58;;;;;;;4.93;2.38;;;;;;;;;;5030695;28;20034;-67
2023/08/13 02:11:24;;;;;;;3.53;2.47;;;;;;;;;;5030990;28;20034;-67
2023/08/13 02:13:49;;;;;;;4.47;2.40;;;;;;;;;;5030917;28;20356;-67
2023/08/13 02:16:14;;;;;;;4.18;2.70;;;;;;;;;;5030841;28;20025;-67
2023/08/13 02:18:40;;;;;;;4.18;2.55;;;;;;;;;;5030892;28;20017;-67
2023/08/13 02:21:05;;;;;;;5.03;2.58;;;;;;;;;;5030830;28;20124;-67
2023/08/13 02:23:31;;;;;;;3.78;2.63;;;;;;;;;;5030153;28;20021;-67
2023/08/13 02:25:56;;;;;;;5.90;2.55;;;;;;;;;;5030634;28;20024;-67
2023/08/13 02:28:22;;;;;;;4.38;2.63;;;;;;;;;;5030637;28;20033;-67
2023/08/13 02:30:52;;;;;;;3.85;2.70;;;;;;;;;;5021790;28;20093;-67
2023/08/13 02:33:18;;;;;;;6.15;3.00;;;;;;;;;;5011014;28;20036;-66
2023/08/13 02:35:43;;;;;;;4.75;2.50;;;;;;;;;;5010869;28;20657;-67
2023/08/13 02:38:09;;;;;;;5.72;3.22;;;;;;;;;;5010675;28;20110;-65
2023/08/13 02:40:35;;;;;;;4.40;2.60;;;;;;;;;;5010990;28;20073;-67
2023/08/13 02:43:02;;;;;;;7.95;3.10;;;;;;;;;;5010794;28;20029;-67
2023/08/13 02:45:27;;;;;;;4.72;2.78;;;;;;;;;;5014155;28;20262;-67
2023/08/13 02:47:53;;;;;;;4.20;2.50;;;;;;;;;;5030240;28;20662;-67
2023/08/13 02:50:18;;;;;;;4.85;3.00;;;;;;;;;;5042276;28;20024;-67
2023/08/13 02:52:43;;;;;;;5.70;3.20;;;;;;;;;;5034507;28;20300;-67
2023/08/13 02:55:09;;;;;;;8.57;3.38;;;;;;;;;;5030570;28;20389;-67
2023/08/13 02:57:34;;;;;;;4.22;3.15;;;;;;;;;;5030325;28;20466;-67
2023/08/13 03:00:00;;;;;;;7.93;2.97;;;;;;;;;;5030406;28;20096;-67
2023/08/13 03:02:25;;;;;;;10.27;3.10;;;;;;;;;;5030140;28;20055;-67
2023/08/13 03:04:51;;;;;;;8.13;2.80;;;;;;;;;;5030459;28;20013;-67
2023/08/13 03:07:17;;;;;;;4.35;2.78;;;;;;;;;;5030214;28;20055;-67
2023/08/13 03:09:42;;;;;;;4.57;3.10;;;;;;;;;;5030261;28;20021;-67
2023/08/13 03:12:07;;;;;;;5.55;2.70;;;;;;;;;;5030149;28;20087;-67
2023/08/13 03:14:33;;;;;;;6.57;3.00;;;;;;;;;;5030470;28;20103;-67
2023/08/13 03:16:58;;;;;;;5.40;2.55;;;;;;;;;;5030409;28;20021;-64
2023/08/13 03:19:24;;;;;;;4.65;2.70;;;;;;;;;;5030317;28;20099;-68
2023/08/13 03:21:49;;;;;;;4.05;2.50;;;;;;;;;;5029922;28;20429;-67
2023/08/13 03:24:15;;;;;;;5.68;3.53;;;;;;;;;;5030187;28;20032;-65
2023/08/13 03:26:41;;;;;;;5.15;2.70;;;;;;;;;;5030269;28;20032;-66
2023/08/13 03:29:07;;;;;;;5.47;2.70;;;;;;;;;;5030122;28;20021;-66
2023/08/13 03:31:32;;;;;;;7.22;3.47;;;;;;;;;;5030026;28;20025;-67
2023/08/13 03:33:58;;;;;;;3.75;2.90;;;;;;;;;;5030117;28;20025;-67
2023/08/13 03:36:23;;;;;;;4.97;2.60;;;;;;;;;;5033248;28;20100;-66
2023/08/13 03:38:48;;;;;;;5.97;2.58;;;;;;;;;;5033915;28;20028;-68
2023/08/13 03:41:14;;;;;;;7.07;3.60;;;;;;;;;;5033799;28;20187;-66
2023/08/13 03:43:39;;;;;;;5.03;2.80;;;;;;;;;;5033792;28;20025;-67
2023/08/13 03:46:05;;;;;;;5.43;2.72;;;;;;;;;;5033681;28;20128;-67
2023/08/13 03:48:30;;;;;;;4.25;2.90;;;;;;;;;;5033028;28;20069;-66
2023/08/13 03:50:55;;;;;;;6.93;2.58;;;;;;;;;;5044464;28;20174;-67
2023/08/13 03:53:24;;;;;;;3.97;2.65;;;;;;;;;;5033482;28;20063;-67
2023/08/13 03:55:50;;;;;;;3.67;2.55;;;;;;;;;;5033543;28;20025;-67
2023/08/13 03:58:16;;;;;;;5.32;2.67;;;;;;;;;;5033478;28;20029;-67
2023/08/13 04:00:41;;;;;;;4.38;3.03;;;;;;;;;;5033372;28;20051;-66
2023/08/13 04:03:08;;;;;;;3.65;2.58;;;;;;;;;;5033442;28;20034;-67
2023/08/13 04:05:34;;;;;;;7.47;2.80;;;;;;;;;;5032999;28;20471;-67
2023/08/13 04:07:59;;;;;;;3.70;2.60;;;;;;;;;;5033144;28;20033;-67
2023/08/13 04:10:25;;;;;;;4.88;2.60;;;;;;;;;;5033252;28;20109;-67
2023/08/13 04:12:50;;;;;;;4.53;2.55;;;;;;;;;;5033084;28;20467;-67
2023/08/13 04:15:15;;;;;;;4.32;2.88;;;;;;;;;;5033205;28;20021;-67
2023/08/13 04:17:41;;;;;;;4.57;2.80;;;;;;;;;;5033204;28;20494;-67
2023/08/13 04:20:07;;;;;;;5.72;2.65;;;;;;;;;;5032739;28;20021;-66
2023/08/13 04:22:33;;;;;;;7.07;2.90;;;;;;;;;;5033053;28;20036;-67
2023/08/13 04:24:58;;;;;;;6.35;2.90;;;;;;;;;;5033055;28;20033;-67
2023/08/13 04:27:24;;;;;;;4.18;3.03;;;;;;;;;;5032897;28;20380;-67
2023/08/13 04:29:50;;;;;;;6.18;2.75;;;;;;;;;;5031790;28;20029;-68
2023/08/13 04:32:16;;;;;;;3.15;2.30;;;;;;;;;;5013147;28;20091;-67
2023/08/13 04:34:41;;;;;;;3.75;2.60;;;;;;;;;;5012924;28;20468;-65
2023/08/13 04:37:07;;;;;;;7.53;2.38;;;;;;;;;;5013002;28;20702;-67
2023/08/13 04:39:32;;;;;;;4.32;2.88;;;;;;;;;;5012981;28;20053;-67
2023/08/13 04:42:01;;;;;;;6.50;2.63;;;;;;;;;;5012901;28;20069;-68
2023/08/13 04:44:27;;;;;;;4.80;2.30;;;;;;;;;;5012980;28;20111;-67
2023/08/13 04:46:53;;;;;;;4.45;2.60;;;;;;;;;;5027680;28;20057;-67
2023/08/13 04:49:18;;;;;;;8.43;2.90;;;;;;;;;;5032056;28;20048;-67
2023/08/13 04:51:44;;;;;;;3.95;2.58;;;;;;;;;;5040766;28;20109;-68
2023/08/13 04:54:09;;;;;;;4.85;2.13;;;;;;;;;;5032364;28;20026;-66
2023/08/13 04:56:34;;;;;;;4.78;2.47;;;;;;;;;;5032466;28;20025;-67
2023/08/13 04:59:00;;;;;;;4.25;2.00;;;;;;;;;;5032420;28;20021;-68
2023/08/13 05:01:26;;;;;;;3.75;2.25;;;;;;;;;;5032384;28;20026;-68
2023/08/13 05:03:51;;;;;;;7.28;2.50;;;;;;;;;;5032089;28;20643;-67
2023/08/13 05:06:17;;;;;;;3.75;2.10;;;;;;;;;;5032146;28;20108;-67
2023/08/13 05:08:42;;;;;;;4.88;2.80;;;;;;;;;;5032165;28;20022;-67
2023/08/13 05:11:08;;;;;;;5.57;2.22;;;;;;;;;;5032134;28;20025;-67
2023/08/13 05:13:33;;;;;;;3.00;2.00;;;;;;;;;;5031984;28;20049;-67
2023/08/13 05:15:59;;;;;;;4.18;1.70;;;;;;;;;;5032010;28;20380;-66
2023/08/13 05:18:24;;;;;;;5.03;1.70;;;;;;;;;;5031817;28;20413;-67
2023/08/13 05:20:50;;;;;;;4.78;1.80;;;;;;;;;;5031863;28;20517;-67
2023/08/13 05:23:16;;;;;;;6.05;2.38;;;;;;;;;;5031853;28;20586;-66
2023/08/13 05:25:42;;;;;;;4.90;1.73;;;;;;;;;;5032149;28;20057;-67
2023/08/13 05:28:07;;;;;;;6.70;1.75;;;;;;;;;;5031673;28;20029;-67
2023/08/13 05:30:35;;;;;;;3.35;1.80;;;;;;;;;;5024784;28;20100;-67
2023/08/13 05:33:01;;;;;;;5.05;1.67;;;;;;;;;;5011838;28;20018;-62
2023/08/13 05:35:26;;;;;;;4.18;1.63;;;;;;;;;;5012063;28;20041;-65
2023/08/13 05:37:52;;;;;;;3.88;1.73;;;;;;;;;;5011833;28;20030;-67
2023/08/13 05:40:17;;;;;;;6.00;1.60;;;;;;;;;;5011766;28;20038;-67
2023/08/13 05:42:43;;;;;;;10.80;1.80;;;;;;;;;;5043764;28;20024;-67
2023/08/13 05:45:08;;;;;;;4.18;2.20;;;;;;;;;;5012669;28;20018;-67
2023/08/13 05:47:34;;;;;;;2.97;1.50;;;;;;;;;;5030912;28;20029;-63
2023/08/13 05:49:59;;;;;;;8.10;1.80;;;;;;;;;;5030923;28;20080;-67
2023/08/13 05:52:25;;;;;;;6.25;1.90;;;;;;;;;;5036321;28;20037;-67
2023/08/13 05:54:50;;;;;;;5.63;1.75;;;;;;;;;;5031493;28;20513;-66
2023/08/13 05:57:16;;;;;;;5.38;1.98;;;;;;;;;;5030863;28;20096;-65
2023/08/13 05:59:42;;;;;;;3.47;1.60;;;;;;;;;;5031075;28;20351;-67
2023/08/13 06:02:08;;;;;;;3.92;1.50;;;;;;;;;;5031150;28;20628;-67
2023/08/13 06:04:36;;;;;;;5.32;1.60;;;;;;;;;;5031665;28;20021;-66
2023/08/13 06:07:04;;;;;;;4.90;1.60;;;;;;;;;;5031153;28;20022;-67
2023/08/13 06:09:33;;;;;;;5.10;1.70;;;;;;;;;;5030913;28;20069;-67
2023/08/13 06:11:59;;;;;;;5.80;1.85;;;;;;;;;;5031046;28;20030;-67
2023/08/13 06:14:24;;;;;;;3.97;1.50;;;;;;;;;;5030816;28;20482;-68
2023/08/13 06:16:50;;;;;;;6.38;1.85;;;;;;;;;;5031153;28;20040;-63
2023/08/13 06:19:16;;;;;;;5.85;2.10;;;;;;;;;;5031051;28;20562;-65
2023/08/13 06:21:41;;;;;;;5.10;1.90;;;;;;;;;;5030739;28;20025;-67
2023/08/13 06:24:06;;;;;;;6.70;1.90;;;;;;;;;;5038973;28;20036;-66
2023/08/13 06:26:33;;;;;;;7.38;1.70;;;;;;;;;;5036120;28;20105;-61
2023/08/13 06:28:58;;;;;;;6.65;1.80;;;;;;;;;;5030419;28;20061;-65
2023/08/13 06:31:24;;;;;;;7.22;1.55;;;;;;;;;;5038162;28;20184;-62
2023/08/13 06:33:49;;;;;;;5.40;1.60;;;;;;;;;;5044815;28;20100;-61
2023/08/13 06:36:15;;;;;;;6.15;1.70;;;;;;;;;;5033224;28;20064;-64
2023/08/13 06:38:41;;;;;;;4.70;1.67;;;;;;;;;;5030692;28;20034;-60
2023/08/13 06:41:06;;;;;;;8.13;1.75;;;;;;;;;;5030529;28;20029;-64
2023/08/13 06:43:35;;;;;;;5.03;1.65;;;;;;;;;;5030563;28;20026;-61
2023/08/13 06:46:01;;;;;;;9.15;2.00;;;;;;;;;;5024913;28;20485;-63
2023/08/13 06:48:27;;;;;;;3.55;1.42;;;;;;;;;;5028891;28;20038;-61
2023/08/13 06:50:57;;;;;;;5.32;2.00;;;;;;;;;;5026914;28;20018;-66
2023/08/13 06:53:23;;;;;;;5.05;1.45;;;;;;;;;;5030412;28;20025;-62
2023/08/13 06:55:49;;;;;;;8.02;1.70;;;;;;;;;;5030911;28;20524;-65
2023/08/13 06:58:14;;;;;;;6.13;1.90;;;;;;;;;;5030818;28;20215;-65
2023/08/13 07:00:44;;;;;;;8.40;1.98;;;;;;;;;;5031113;28;20028;-64
2023/08/13 07:03:09;;;;;;;5.97;1.63;;;;;;;;;;5027507;28;20026;-66
2023/08/13 07:05:36;;;;;;;8.70;1.88;;;;;;;;;;5022261;28;20030;-66
2023/08/13 07:08:01;;;;;;;4.35;1.80;;;;;;;;;;5020806;28;20061;-66
2023/08/13 07:10:28;;;;;;;9.02;1.92;;;;;;;;;;5034251;28;20049;-66
2023/08/13 07:12:53;;;;;;;5.15;1.77;;;;;;;;;;5035916;28;20064;-66
2023/08/13 07:15:19;;;;;;;6.68;1.58;;;;;;;;;;5036266;28;20052;-67
2023/08/13 07:17:44;;;;;;;4.00;1.58;;;;;;;;;;5036029;28;20025;-66
2023/08/13 07:20:13;;;;;;;7.82;1.70;;;;;;;;;;5036096;28;20041;-67
2023/08/13 07:22:41;;;;;;;5.70;1.90;;;;;;;;;;5036019;28;20114;-66
2023/08/13 07:25:08;;;;;;;5.05;1.60;;;;;;;;;;5035930;28;20038;-67
2023/08/13 07:27:34;;;;;;;5.47;1.70;;;;;;;;;;5035538;28;20030;-67
2023/08/13 07:30:00;;;;;;;5.10;1.70;;;;;;;;;;5033337;28;20032;-67
2023/08/13 07:32:26;;;;;;;8.15;1.83;;;;;;;;;;5016139;28;20025;-67
2023/08/13 07:34:51;;;;;;;8.02;1.58;;;;;;;;;;5016010;28;20472;-66
2023/08/13 07:37:17;;;;;;;5.60;1.73;;;;;;;;;;5016078;28;20018;-67
2023/08/13 07:39:42;;;;;;;6.55;1.75;;;;;;;;;;5015894;28;20383;-66
2023/08/13 07:42:08;;;;;;;6.57;2.15;;;;;;;;;;5015750;28;20140;-67
2023/08/13 07:44:35;;;;;;;8.75;2.10;;;;;;;;;;5024499;28;20053;-68
2023/08/13 07:47:00;;;;;;;3.85;1.58;;;;;;;;;;5034745;28;20033;-68
2023/08/13 07:49:27;;;;;;;6.85;1.77;;;;;;;;;;5034796;28;20076;-66
2023/08/13 07:51:53;;;;;;;5.68;1.70;;;;;;;;;;5067071;28;20124;-67
2023/08/13 07:54:22;;;;;;;6.25;1.73;;;;;;;;;;5050695;28;20034;-68
2023/08/13 07:56:48;;;;;;;6.03;1.90;;;;;;;;;;5015467;28;20096;-66
2023/08/13 07:59:13;;;;;;;8.73;2.13;;;;;;;;;;5023475;28;20475;-67
2023/08/13 08:01:38;;;;;;;6.75;1.90;;;;;;;;;;5035188;28;20078;-67
2023/08/13 08:04:04;;;;;;;9.48;2.08;;;;;;;;;;5035131;28;20075;-67
2023/08/13 08:06:29;;;;;;;6.82;1.73;;;;;;;;;;5034419;28;20063;-68
2023/08/13 08:08:55;;;;;;;5.72;1.88;;;;;;;;;;5034630;28;20030;-67
2023/08/13 08:11:20;;;;;;;7.22;1.50;;;;;;;;;;5034888;28;20038;-68
2023/08/13 08:13:46;;;;;;;6.47;1.70;;;;;;;;;;5035197;28;20445;-73
2023/08/13 08:16:12;;;;;;;5.47;1.70;;;;;;;;;;5035269;28;20025;-67
2023/08/13 08:18:38;;;;;;;6.03;1.90;;;;;;;;;;5035122;28;20116;-67
2023/08/13 08:21:03;;;;;;;7.63;1.65;;;;;;;;;;5034189;28;20113;-66
2023/08/13 08:23:29;;;;;;;10.55;1.85;;;;;;;;;;5035071;28;20088;-67
2023/08/13 08:25:55;;;;;;;4.40;1.58;;;;;;;;;;5034484;28;20083;-66
2023/08/13 08:28:20;;;;;;;5.72;1.60;;;;;;;;;;5034812;28;20116;-67
2023/08/13 08:30:45;;;;;;;6.28;1.70;;;;;;;;;;5025968;28;20030;-67
2023/08/13 08:33:13;;;;;;;6.65;1.63;;;;;;;;;;5015056;28;20109;-68
2023/08/13 08:35:38;;;;;;;6.38;2.22;;;;;;;;;;5014855;28;20026;-67
2023/08/13 08:38:04;;;;;;;7.00;1.60;;;;;;;;;;5014592;28;20044;-66
2023/08/13 08:40:30;;;;;;;6.63;1.55;;;;;;;;;;5014609;28;20084;-66
2023/08/13 08:42:56;;;;;;;5.95;2.08;;;;;;;;;;5014663;28;20026;-70
2023/08/13 08:45:22;;;;;;;4.80;1.58;;;;;;;;;;5029730;28;20478;-70
2023/08/13 08:47:51;;;;;;;5.55;1.33;;;;;;;;;;5034292;28;20053;-69
2023/08/13 08:50:17;;;;;;;5.80;1.73;;;;;;;;;;5034227;28;20041;-68
2023/08/13 08:52:43;;;;;;;10.13;1.92;;;;;;;;;;5034234;28;20052;-67
2023/08/13 08:55:12;;;;;;;42.95;2.72;;;;;;;;;;5034106;28;20025;-68
2023/08/13 08:57:38;;;;;;;15.45;1.80;;;;;;;;;;5034324;28;20034;-67
2023/08/13 09:00:05;;;;;;;22.20;2.08;;;;;;;;;;5034355;28;20124;-69
2023/08/13 09:02:30;;;;;;;9.18;1.75;;;;;;;;;;5034265;28;20037;-68
2023/08/13 09:04:56;;;;;;;7.03;1.60;;;;;;;;;;5034189;28;20025;-67
2023/08/13 09:07:32;;;;;;;6.18;1.90;;;;;;;;;;5034070;28;20029;-67
2023/08/13 09:09:57;;;;;;;8.05;1.77;;;;;;;;;;5032470;28;20439;-68
2023/08/13 09:12:23;;;;;;;6.00;1.80;;;;;;;;;;5034118;28;20064;-66
2023/08/13 09:14:53;;;;;;;6.72;1.45;;;;;;;;;;5034000;28;20028;-68
2023/08/13 09:17:22;;;;;;;6.70;1.52;;;;;;;;;;5034004;28;20025;-67
2023/08/13 09:19:48;;;;;;;5.80;1.50;;;;;;;;;;5033605;28;20110;-70
2023/08/13 09:22:13;;;;;;;5.80;1.50;;;;;;;;;;5033707;28;20082;-70
2023/08/13 09:24:41;;;;;;;5.70;1.60;;;;;;;;;;5033546;28;20494;-67
2023/08/13 09:27:08;;;;;;;6.03;1.63;;;;;;;;;;5033806;28;20029;-69
2023/08/13 09:29:35;;;;;;;4.72;1.50;;;;;;;;;;5032956;28;20025;-69
2023/08/13 09:32:02;;;;;;;3.60;1.52;;;;;;;;;;5032680;28;20115;-67
2023/08/13 09:34:29;;;;;;;6.30;1.67;;;;;;;;;;5033254;28;20032;-67
2023/08/13 09:36:56;;;;;;;4.47;1.70;;;;;;;;;;5033213;28;20026;-72
2023/08/13 09:39:26;;;;;;;5.18;1.52;;;;;;;;;;5032156;28;20072;-70
2023/08/13 09:41:52;;;;;;;4.43;1.65;;;;;;;;;;5032972;28;20030;-70
2023/08/13 09:44:20;;;;;;;5.05;1.70;;;;;;;;;;5033127;28;20056;-70
2023/08/13 09:46:50;;;;;;;5.28;1.70;;;;;;;;;;5033013;28;20033;-69
2023/08/13 09:49:17;;;;;;;5.25;2.00;;;;;;;;;;5032721;28;20495;-70
2023/08/13 09:51:46;;;;;;;6.05;1.75;;;;;;;;;;5032663;28;20048;-69
2023/08/13 09:54:17;;;;;;;4.93;1.60;;;;;;;;;;5032536;28;20041;-69
2023/08/13 09:56:46;;;;;;;5.82;1.60;;;;;;;;;;5033180;28;20124;-69
2023/08/13 09:59:12;;;;;;;6.47;1.65;;;;;;;;;;5033009;28;20028;-69
2023/08/13 10:01:39;;;;;;;5.10;1.70;;;;;;;;;;5032484;28;20030;-68
2023/08/13 10:04:07;;;;;;;5.57;1.67;;;;;;;;;;5032769;28;20030;-70
2023/08/13 10:06:33;;;;;;;7.95;1.90;;;;;;;;;;5032780;28;20029;-70
2023/08/13 10:08:59;;;;;;;4.78;1.58;;;;;;;;;;5032760;28;20360;-70
2023/08/13 10:11:24;;;;;;;6.38;1.80;;;;;;;;;;5032956;28;20075;-72
2023/08/13 10:13:50;;;;;;;5.22;1.35;;;;;;;;;;5032885;28;20445;-70
2023/08/13 10:16:16;;;;;;;6.00;2.00;;;;;;;;;;5032867;28;20028;-70
2023/08/13 10:18:46;;;;;;;4.65;1.40;;;;;;;;;;5032933;28;20421;-70
2023/08/13 10:21:13;;;;;;;6.28;1.80;;;;;;;;;;5032577;28;20360;-69
2023/08/13 10:23:39;;;;;;;6.43;1.77;;;;;;;;;;5032601;28;20029;-70
2023/08/13 10:26:05;;;;;;;3.63;1.40;;;;;;;;;;5032551;28;20049;-69
2023/08/13 10:28:31;;;;;;;5.72;1.83;;;;;;;;;;5032682;28;20112;-70
2023/08/13 10:31:30;;;;;;;6.32;1.70;;;;;;;;;;5022032;28;20061;-72
2023/08/13 10:34:07;;;;;;;4.10;1.60;;;;;;;;;;5030377;28;20188;-69
2023/08/13 10:36:54;;;;;;;5.18;1.65;;;;;;;;;;5030216;28;20391;-71
2023/08/13 10:39:47;;;;;;;5.57;1.50;;;;;;;;;;5030271;28;20056;-71
2023/08/13 10:42:27;;;;;;;5.60;1.80;;;;;;;;;;5028546;28;20029;-69
2023/08/13 10:45:00;;;;;;;8.82;1.98;;;;;;;;;;5029905;28;20403;-73
2023/08/13 10:47:40;;;;;;;3.88;1.73;;;;;;;;;;5029825;28;20112;-70
2023/08/13 10:50:14;;;;;;;6.75;2.35;;;;;;;;;;5029554;28;20064;-66
2023/08/13 10:52:40;;;;;;;3.45;1.45;;;;;;;;;;5030004;28;20038;-70
2023/08/13 10:55:09;;;;;;;5.55;1.80;;;;;;;;;;5029945;28;20048;-70
2023/08/13 10:57:34;;;;;;;3.15;1.52;;;;;;;;;;5030033;28;20038;-70
2023/08/13 11:00:01;;;;;;;10.35;2.15;;;;;;;;;;5029952;28;20038;-71
2023/08/13 11:02:30;;;;;;;4.28;1.60;;;;;;;;;;5030137;28;20060;-72
2023/08/13 11:04:56;;;;;;;5.65;2.05;;;;;;;;;;5029826;28;20069;-71
2023/08/13 11:07:22;;;;;;;7.75;2.13;;;;;;;;;;5029651;28;20076;-73
2023/08/13 11:09:48;;;;;;;4.55;1.90;;;;;;;;;;5018917;28;20042;-73
2023/08/13 11:12:13;;;;;;;5.18;1.98;;;;;;;;;;5012344;28;20559;-70
2023/08/13 11:14:40;;;;;;;8.00;1.90;;;;;;;;;;5012306;28;20029;-70
2023/08/13 11:17:07;;;;;;;5.45;1.83;;;;;;;;;;5012198;28;20034;-68
2023/08/13 11:19:32;;;;;;;5.00;1.60;;;;;;;;;;5012122;28;20026;-73
2023/08/13 11:21:59;;;;;;;5.35;1.73;;;;;;;;;;5012155;28;20313;-70
2023/08/13 11:24:25;;;;;;;8.73;2.00;;;;;;;;;;5012104;28;20080;-71
2023/08/13 11:26:51;;;;;;;4.85;1.73;;;;;;;;;;5012280;28;20034;-72
2023/08/13 11:29:21;;;;;;;6.50;2.03;;;;;;;;;;5012264;28;20034;-69
2023/08/13 11:31:48;;;;;;;5.35;2.00;;;;;;;;;;5012791;28;20022;-70
2023/08/13 11:34:16;;;;;;;4.63;1.63;;;;;;;;;;5011803;28;20021;-70
2023/08/13 11:36:45;;;;;;;5.32;1.92;;;;;;;;;;5012125;28;20026;-68
2023/08/13 11:39:12;;;;;;;4.78;1.67;;;;;;;;;;5012162;28;20029;-71
2023/08/13 11:41:38;;;;;;;7.10;1.80;;;;;;;;;;5011960;28;20033;-67
2023/08/13 11:44:05;;;;;;;3.70;1.70;;;;;;;;;;5016317;28;20029;-66
2023/08/13 11:46:53;;;;;;;7.32;1.63;;;;;;;;;;5031619;28;20026;-66
2023/08/13 11:49:18;;;;;;;6.35;1.67;;;;;;;;;;5031111;28;20053;-66
2023/08/13 11:51:44;;;;;;;3.97;1.38;;;;;;;;;;5031439;28;20535;-67
2023/08/13 11:54:10;;;;;;;3.88;1.65;;;;;;;;;;5031535;28;20028;-66
2023/08/13 11:56:38;;;;;;;7.72;1.98;;;;;;;;;;5033884;28;20029;-67
2023/08/13 11:59:05;;;;;;;4.35;1.77;;;;;;;;;;5035254;28;20032;-67
2023/08/13 12:01:33;;;;;;;5.45;1.90;;;;;;;;;;5035176;28;20475;-67
2023/08/13 12:03:59;;;;;;;5.47;2.08;;;;;;;;;;5034849;28;20021;-67
2023/08/13 12:06:26;;;;;;;5.75;1.80;;;;;;;;;;5035092;28;20067;-67
2023/08/13 12:08:52;;;;;;;7.25;1.90;;;;;;;;;;5034814;28;20033;-67
2023/08/13 12:11:17;;;;;;;4.50;1.50;;;;;;;;;;5035147;28;20027;-68
2023/08/13 12:13:45;;;;;;;4.55;1.48;;;;;;;;;;5035065;28;20105;-67
2023/08/13 12:16:10;;;;;;;6.78;1.80;;;;;;;;;;5034837;28;20141;-65
2023/08/13 12:18:36;;;;;;;5.95;1.83;;;;;;;;;;5034681;28;20064;-66
2023/08/13 12:21:02;;;;;;;5.18;1.98;;;;;;;;;;5034749;28;20025;-67
2023/08/13 12:23:28;;;;;;;5.25;1.73;;;;;;;;;;5034871;28;20033;-67
2023/08/13 12:25:53;;;;;;;4.78;1.73;;;;;;;;;;5034692;28;20029;-67
2023/08/13 12:28:19;;;;;;;6.18;1.85;;;;;;;;;;5034785;28;20398;-67
2023/08/13 12:30:44;;;;;;;4.03;1.60;;;;;;;;;;5025936;28;20113;-67
2023/08/13 12:33:10;;;;;;;6.00;1.50;;;;;;;;;;5014667;28;20029;-67
2023/08/13 12:35:35;;;;;;;6.28;2.13;;;;;;;;;;5014852;28;20026;-66
2023/08/13 12:38:00;;;;;;;7.65;1.88;;;;;;;;;;5014639;28;20026;-68
2023/08/13 12:40:26;;;;;;;5.38;1.83;;;;;;;;;;5014667;28;20398;-67
2023/08/13 12:42:53;;;;;;;5.28;1.70;;;;;;;;;;5014508;28;20368;-67
2023/08/13 12:45:19;;;;;;;5.00;1.60;;;;;;;;;;5028985;28;20483;-68
2023/08/13 12:47:44;;;;;;;9.15;1.80;;;;;;;;;;5033965;28;20044;-67
2023/08/13 12:50:10;;;;;;;5.72;1.75;;;;;;;;;;5033843;28;20437;-65
2023/08/13 12:52:36;;;;;;;8.23;1.70;;;;;;;;;;5026379;28;20026;-68
2023/08/13 12:55:02;;;;;;;4.57;1.50;;;;;;;;;;5023196;28;20029;-67
2023/08/13 12:57:27;;;;;;;4.45;1.80;;;;;;;;;;5034049;28;20021;-67
2023/08/13 12:59:55;;;;;;;9.75;1.80;;;;;;;;;;5033923;28;20032;-67
2023/08/13 13:02:23;;;;;;;5.50;1.63;;;;;;;;;;5033797;28;20018;-67
2023/08/13 13:04:50;;;;;;;4.28;1.65;;;;;;;;;;5033922;28;20441;-67
2023/08/13 13:07:16;;;;;;;3.55;1.30;;;;;;;;;;5034090;28;20032;-66
2023/08/13 13:09:42;;;;;;;4.28;1.40;;;;;;;;;;5033837;28;20382;-67
2023/08/13 13:12:07;;;;;;;5.53;1.33;;;;;;;;;;5033690;28;20029;-67
2023/08/13 13:14:33;;;;;;;4.70;1.50;;;;;;;;;;5033820;28;20033;-67
2023/08/13 13:16:58;;;;;;;5.38;1.60;;;;;;;;;;5033446;28;20037;-68
2023/08/13 13:19:24;;;;;;;4.55;1.70;;;;;;;;;;5033639;28;20026;-67
2023/08/13 13:21:49;;;;;;;5.93;1.73;;;;;;;;;;5033578;28;20065;-67
2023/08/13 13:24:15;;;;;;;5.05;1.70;;;;;;;;;;5033682;28;20032;-67
2023/08/13 13:26:40;;;;;;;5.72;1.40;;;;;;;;;;5033630;28;20100;-67
2023/08/13 13:29:06;;;;;;;3.67;1.30;;;;;;;;;;5033480;28;20542;-66
2023/08/13 13:31:31;;;;;;;5.13;1.60;;;;;;;;;;5018222;28;20523;-67
2023/08/13 13:33:57;;;;;;;6.45;1.60;;;;;;;;;;5013642;28;20060;-66
2023/08/13 13:36:22;;;;;;;7.63;1.88;;;;;;;;;;5013629;28;20030;-67
2023/08/13 13:38:48;;;;;;;4.18;1.60;;;;;;;;;;5013608;28;20113;-67
2023/08/13 13:41:14;;;;;;;6.72;1.50;;;;;;;;;;5013644;28;20057;-68
2023/08/13 13:43:39;;;;;;;6.10;1.95;;;;;;;;;;5014314;28;20049;-66
2023/08/13 13:46:05;;;;;;;4.55;1.52;;;;;;;;;;5033110;28;20034;-67
2023/08/13 13:48:30;;;;;;;7.47;2.00;;;;;;;;;;5032819;28;20050;-67
2023/08/13 13:50:55;;;;;;;4.75;1.77;;;;;;;;;;5032953;28;20393;-67
2023/08/13 13:53:21;;;;;;;5.90;1.75;;;;;;;;;;5033040;28;20074;-67
2023/08/13 13:55:48;;;;;;;3.33;1.40;;;;;;;;;;5033041;28;20364;-67
2023/08/13 13:58:13;;;;;;;3.80;1.60;;;;;;;;;;5032925;28;20036;-66
2023/08/13 14:00:39;;;;;;;4.32;1.58;;;;;;;;;;5032994;28;20029;-67
2023/08/13 14:03:04;;;;;;;3.72;1.40;;;;;;;;;;5032977;28;20116;-67
2023/08/13 14:05:30;;;;;;;5.35;1.80;;;;;;;;;;5032944;28;20037;-67
2023/08/13 14:07:56;;;;;;;5.13;1.85;;;;;;;;;;5032735;28;20033;-67
2023/08/13 14:10:21;;;;;;;4.82;1.50;;;;;;;;;;5032846;28;20033;-66
2023/08/13 14:12:46;;;;;;;4.20;1.77;;;;;;;;;;5032483;28;20075;-65
2023/08/13 14:15:12;;;;;;;5.13;1.60;;;;;;;;;;5032507;28;20017;-67
2023/08/13 14:17:37;;;;;;;7.68;1.30;;;;;;;;;;5032738;28;20485;-66
2023/08/13 14:20:03;;;;;;;4.55;1.80;;;;;;;;;;5032167;28;20105;-65
2023/08/13 14:22:30;;;;;;;4.55;1.33;;;;;;;;;;5031323;28;20508;-66
2023/08/13 14:24:56;;;;;;;3.40;1.42;;;;;;;;;;5032509;28;20026;-65
2023/08/13 14:27:21;;;;;;;3.65;1.45;;;;;;;;;;5032316;28;20513;-67
2023/08/13 14:29:48;;;;;;;4.25;1.60;;;;;;;;;;5031694;28;20128;-66
2023/08/13 14:32:14;;;;;;;4.72;1.60;;;;;;;;;;5021472;28;20029;-66
2023/08/13 14:34:39;;;;;;;4.50;1.50;;;;;;;;;;5032357;28;20386;-66
2023/08/13 14:37:04;;;;;;;4.18;1.83;;;;;;;;;;5032387;28;20108;-67
2023/08/13 14:39:30;;;;;;;5.18;1.70;;;;;;;;;;5032311;28;20029;-67